View Sortable Currents For Network
ASOSAWOSCoCoRaHSCOOPDCPISUSM
SchoolNetOtherSCANMy FavoritesBy StateRWIS
RWIS SurfaceRWIS TrafficRWIS SoilBy NWS WFOUSCRN

Current AWOS Conditions

** This page will automatically refresh every five minutes.
Sorted by: (1 hr Rainfall)     Click on a column to sort it.

Add ID: Name: Ob Time   Wind [knots]   Rainfall
Temp (Hi / Lo) DewP Feels RH% Dir Speed Peak Gust
@ Time
Alti Vsby Hour Today
FODFORT DODGE05:56 PM 58(62/24) 38 53 47 240 528 @ 12:51 PM 30.01 10 0 0
OXVKnoxville06:15 PM 55(57/27) 32 0 024 @ 04:35 PM 30.05 10 0
RDKRED OAK06:15 PM 63(66/27) 41 59 44 200 927 @ 03:15 PM 30.01 10 0
SHLSHELDON06:15 PM 57(64/25) 36 52 45 320 428 @ 11:15 AM 29.98 9 0
ORCOrange City06:15 PM 63(66/30) 37 59 38 340 325 @ 09:35 AM 30 10 0
OLZOELWEIN06:15 PM 48(54/23) 27 45 44 190 523 @ 11:35 AM 30.05 0
FSWFORT MADISON06:15 PM 52(55/25) 30 46 43 190 9G1717 @ 05:15 PM 30.09 10 0
LRJLE MARS06:15 PM 63(68/27) 37 59 38 320 422 @ 09:35 AM 29.99 9 0
BNWBOONE MUNI06:15 PM 59(63/27) 36 54 42 220 523 @ 02:55 PM 30.01 10 0
MUTMUSCATINE06:15 PM 50(55/25) 27 47 41 200 723 @ 04:35 PM 30.09 10 0
SLBStorm Lake06:15 PM 57(63/27) 37 52 47 230 627 @ 12:55 PM 29.99 10 0
CBFCOUNCIL BLUFFS06:15 PM 64(68/32) 39 60 40 220 928 @ 01:15 PM 30 10 0
EBSWebster City05:55 PM 59(63/25) 34 54 39 240 5G1127 @ 01:35 PM 29.99 10 0
AWGWASHINGTON06:15 PM 50(55/25) 28 47 42 210 722 @ 04:15 PM 30.09 10 0
MPZMOUNT PLEASANT06:15 PM 52(57/27) 30 46 43 210 720 @ 04:55 PM 30.08 10 0
HPTHampton06:15 PM 52(59/23) 34 47 50 210 424 @ 10:35 AM 30.01 10 0
CINCARROLL06:15 PM 61(64/23) 36 56 39 210 527 @ 11:35 AM 30 10 0
AIOATLANTIC06:15 PM 59(64/27) 41 55 51 210 727 @ 01:55 PM 30.01 10 0
ADUAUDUBON06:15 PM 61(64/25) 37 41 0 027 @ 11:15 AM 30.02 10 0
CSQCRESTON06:15 PM 57(61/27) 37 52 47 200 1228 @ 03:35 PM 30.04 10 0
FXYForest City06:15 PM 54(59/23) 36 49 50 240 427 @ 01:35 PM 29.99 10 0
FFLFAIRFIELD06:15 PM 54(55/25) 27 47 35 200 821 @ 04:55 PM 30.07 10 0
ICLCLARINDA06:15 PM 61(64/25) 39 57 44 200 927 @ 02:35 PM 30.06 10 0
DNSDENISON06:15 PM 63(66/27) 39 41 0 032 @ 01:35 PM 30.01 10 0
HNRHARLAN06:15 PM 61(66/25) 41 57 48 210 729 @ 03:15 PM 30 10 0
IFAIowa Falls06:15 PM 56(59/24) 35 51 45 190 623 @ 11:55 AM 30.02 10 0
GGIGrinnell06:15 PM 52(57/25) 32 200 624 @ 02:55 PM 30.07 10 0
EOKKEOKUK MUNI06:15 PM 52(55/27) 28 45 39 190 10G1519 @ 11:55 AM 30.09 10 0
I75Osceola06:15 PM 57(60/27) 36 52 45 190 8G1421 @ 01:55 PM 30.03 10 0
PROPerry06:35 PM 59(64/23) 34 39 0 022 @ 01:15 PM 30.02 10 0
TVKCenterville05:55 PM 54(55/27) 32 180 11G1421 @ 04:35 PM 30.08 10 0
PEAPELLA06:15 PM 55(58/26) 31 49 40 210 722 @ 03:55 PM 30.07 10 0
VTIVINTON06:15 PM 52(56/22) 28 45 39 200 621 @ 12:15 PM 30.05 10 0
OOAOskaloosa06:15 PM 51(57/24) 31 45 46 220 623 @ 03:55 PM 30.07 10 0
AXAALGONA06:15 PM 55(63/25) 36 50 49 250 530 @ 12:15 PM 29.99 10 0
CAVCLARION06:15 PM 55(61/23) 34 50 45 240 527 @ 11:15 AM 30 9 0
CNCCHARITON06:15 PM 54(57/25) 34 49 47 200 1025 @ 10:55 AM 30.04 10 0
CWICLINTON05:56 PM 49(52/21) 26 45 40 200 920 @ 02:00 PM 30.07 10 0
MXOMONTICELLO MUNI06:15 PM 48(54/21) 27 45 44 190 520 @ 02:55 PM 30.07 10 0
DEHDECORAH06:15 PM 50(54/25) 28 48 42 200 423 @ 10:55 AM 30.01 10 0
SDASHENANDOAH MUNI06:15 PM 64(68/28) 41 60 43 190 924 @ 01:15 PM 30.03 10 0
IKVANKENY06:15 PM 57(59/25) 36 45 @ 06:00 PM 30.05 10 0
CCYCHARLES CITY06:15 PM 50(55/23) 30 47 46 190 625 @ 12:35 PM 30.02 10 0
TNUNEWTON MUNI06:15 PM 54(57/25) 32 200 628 @ 03:15 PM 30.05 10 0
IIBINDEPENDENCE06:15 PM 50(56/23) 29 47 44 220 621 @ 12:55 PM 30.05 10 0
CKPCherokee06:15 PM 60(65/25) 39 46 0 027 @ 11:55 AM 29.99 10 0